sensor_id;sensor_type;location;lat;lon;timestamp;P1;durP1;ratioP1;P2;durP2;ratioP2
5801;SDS011;2927;49.366;8.530;2023-02-12T00:02:14;37.07;;;19.93;;
5801;SDS011;2927;49.366;8.530;2023-02-12T00:04:39;36.07;;;18.53;;
5801;SDS011;2927;49.366;8.530;2023-02-12T00:07:05;37.87;;;19.83;;
5801;SDS011;2927;49.366;8.530;2023-02-12T00:09:31;49.57;;;21.17;;
5801;SDS011;2927;49.366;8.530;2023-02-12T00:11:56;45.93;;;19.93;;
5801;SDS011;2927;49.366;8.530;2023-02-12T00:14:22;43.33;;;21.97;;
5801;SDS011;2927;49.366;8.530;2023-02-12T00:16:47;33.00;;;20.17;;
5801;SDS011;2927;49.366;8.530;2023-02-12T00:19:13;46.60;;;21.27;;
5801;SDS011;2927;49.366;8.530;2023-02-12T00:21:38;44.07;;;21.27;;
5801;SDS011;2927;49.366;8.530;2023-02-12T00:24:04;41.03;;;22.00;;
5801;SDS011;2927;49.366;8.530;2023-02-12T00:26:29;35.03;;;19.80;;
5801;SDS011;2927;49.366;8.530;2023-02-12T00:28:55;45.87;;;20.73;;
5801;SDS011;2927;49.366;8.530;2023-02-12T00:31:22;41.07;;;21.50;;
5801;SDS011;2927;49.366;8.530;2023-02-12T00:33:49;41.97;;;20.90;;
5801;SDS011;2927;49.366;8.530;2023-02-12T00:36:19;44.00;;;20.57;;
5801;SDS011;2927;49.366;8.530;2023-02-12T00:38:47;41.63;;;20.50;;
5801;SDS011;2927;49.366;8.530;2023-02-12T00:41:14;35.87;;;19.03;;
5801;SDS011;2927;49.366;8.530;2023-02-12T00:43:40;32.93;;;17.43;;
5801;SDS011;2927;49.366;8.530;2023-02-12T00:46:05;35.80;;;19.23;;
5801;SDS011;2927;49.366;8.530;2023-02-12T00:48:32;38.97;;;18.67;;
5801;SDS011;2927;49.366;8.530;2023-02-12T00:50:58;37.63;;;19.47;;
5801;SDS011;2927;49.366;8.530;2023-02-12T00:53:23;41.83;;;19.80;;
5801;SDS011;2927;49.366;8.530;2023-02-12T00:55:49;45.23;;;18.70;;
5801;SDS011;2927;49.366;8.530;2023-02-12T00:58:14;42.73;;;20.17;;
5801;SDS011;2927;49.366;8.530;2023-02-12T01:00:41;37.67;;;18.60;;
5801;SDS011;2927;49.366;8.530;2023-02-12T01:03:07;41.07;;;19.67;;
5801;SDS011;2927;49.366;8.530;2023-02-12T01:05:33;48.03;;;19.87;;
5801;SDS011;2927;49.366;8.530;2023-02-12T01:07:59;33.60;;;18.73;;
5801;SDS011;2927;49.366;8.530;2023-02-12T01:10:25;50.53;;;20.50;;
5801;SDS011;2927;49.366;8.530;2023-02-12T01:12:51;52.63;;;21.17;;
5801;SDS011;2927;49.366;8.530;2023-02-12T01:15:17;36.70;;;19.47;;
5801;SDS011;2927;49.366;8.530;2023-02-12T01:17:43;51.33;;;22.87;;
5801;SDS011;2927;49.366;8.530;2023-02-12T01:20:10;52.70;;;23.70;;
5801;SDS011;2927;49.366;8.530;2023-02-12T01:22:38;44.97;;;19.30;;
5801;SDS011;2927;49.366;8.530;2023-02-12T01:25:04;47.13;;;22.07;;
5801;SDS011;2927;49.366;8.530;2023-02-12T01:27:30;38.97;;;20.57;;
5801;SDS011;2927;49.366;8.530;2023-02-12T01:29:57;48.57;;;20.87;;
5801;SDS011;2927;49.366;8.530;2023-02-12T01:32:22;43.40;;;21.07;;
5801;SDS011;2927;49.366;8.530;2023-02-12T01:34:48;37.40;;;18.23;;
5801;SDS011;2927;49.366;8.530;2023-02-12T01:37:14;32.10;;;17.70;;
5801;SDS011;2927;49.366;8.530;2023-02-12T01:39:39;38.80;;;17.50;;
5801;SDS011;2927;49.366;8.530;2023-02-12T01:42:05;45.90;;;17.57;;
5801;SDS011;2927;49.366;8.530;2023-02-12T01:44:31;31.50;;;17.80;;
5801;SDS011;2927;49.366;8.530;2023-02-12T01:47:02;39.60;;;19.90;;
5801;SDS011;2927;49.366;8.530;2023-02-12T01:49:30;35.13;;;19.00;;
5801;SDS011;2927;49.366;8.530;2023-02-12T01:52:03;37.00;;;18.90;;
5801;SDS011;2927;49.366;8.530;2023-02-12T01:54:36;38.33;;;18.70;;
5801;SDS011;2927;49.366;8.530;2023-02-12T01:57:02;31.80;;;16.23;;
5801;SDS011;2927;49.366;8.530;2023-02-12T01:59:30;34.87;;;17.43;;
5801;SDS011;2927;49.366;8.530;2023-02-12T02:01:56;37.13;;;17.00;;
5801;SDS011;2927;49.366;8.530;2023-02-12T02:04:24;35.20;;;16.67;;
5801;SDS011;2927;49.366;8.530;2023-02-12T02:06:56;31.67;;;15.90;;
5801;SDS011;2927;49.366;8.530;2023-02-12T02:09:24;39.93;;;15.70;;
5801;SDS011;2927;49.366;8.530;2023-02-12T02:11:52;29.77;;;14.40;;
5801;SDS011;2927;49.366;8.530;2023-02-12T02:14:36;37.73;;;14.70;;
5801;SDS011;2927;49.366;8.530;2023-02-12T02:17:05;27.17;;;14.43;;
5801;SDS011;2927;49.366;8.530;2023-02-12T02:31:31;28.40;;;12.17;;
5801;SDS011;2927;49.366;8.530;2023-02-12T02:34:18;33.87;;;15.80;;
5801;SDS011;2927;49.366;8.530;2023-02-12T02:36:58;33.03;;;13.90;;
5801;SDS011;2927;49.366;8.530;2023-02-12T02:39:42;29.20;;;12.80;;
5801;SDS011;2927;49.366;8.530;2023-02-12T02:42:21;33.93;;;15.83;;
5801;SDS011;2927;49.366;8.530;2023-02-12T02:44:52;32.00;;;14.87;;
5801;SDS011;2927;49.366;8.530;2023-02-12T02:47:40;30.20;;;14.63;;
5801;SDS011;2927;49.366;8.530;2023-02-12T02:50:11;28.90;;;13.90;;
5801;SDS011;2927;49.366;8.530;2023-02-12T02:55:12;27.10;;;13.10;;
5801;SDS011;2927;49.366;8.530;2023-02-12T02:57:44;25.93;;;14.00;;
5801;SDS011;2927;49.366;8.530;2023-02-12T03:00:19;37.53;;;16.27;;
5801;SDS011;2927;49.366;8.530;2023-02-12T03:02:51;41.93;;;19.80;;
5801;SDS011;2927;49.366;8.530;2023-02-12T03:05:29;41.37;;;20.00;;
5801;SDS011;2927;49.366;8.530;2023-02-12T03:08:02;43.10;;;20.07;;
5801;SDS011;2927;49.366;8.530;2023-02-12T03:10:40;40.70;;;19.53;;
5801;SDS011;2927;49.366;8.530;2023-02-12T03:13:20;43.03;;;20.90;;
5801;SDS011;2927;49.366;8.530;2023-02-12T03:16:05;41.20;;;18.67;;
5801;SDS011;2927;49.366;8.530;2023-02-12T03:18:43;35.43;;;18.97;;
5801;SDS011;2927;49.366;8.530;2023-02-12T03:21:17;30.60;;;15.60;;
5801;SDS011;2927;49.366;8.530;2023-02-12T03:23:55;31.03;;;16.50;;
5801;SDS011;2927;49.366;8.530;2023-02-12T03:26:35;39.40;;;19.20;;
5801;SDS011;2927;49.366;8.530;2023-02-12T03:29:22;42.50;;;18.07;;
5801;SDS011;2927;49.366;8.530;2023-02-12T03:31:57;35.87;;;18.47;;
5801;SDS011;2927;49.366;8.530;2023-02-12T03:37:27;36.43;;;18.20;;
5801;SDS011;2927;49.366;8.530;2023-02-12T03:42:44;34.43;;;18.07;;
5801;SDS011;2927;49.366;8.530;2023-02-12T03:46:23;39.00;;;19.80;;
5801;SDS011;2927;49.366;8.530;2023-02-12T03:48:46;44.60;;;22.33;;
5801;SDS011;2927;49.366;8.530;2023-02-12T03:51:29;36.00;;;18.33;;
5801;SDS011;2927;49.366;8.530;2023-02-12T03:53:56;55.70;;;19.30;;
5801;SDS011;2927;49.366;8.530;2023-02-12T03:56:39;42.00;;;21.33;;
5801;SDS011;2927;49.366;8.530;2023-02-12T03:59:09;39.03;;;20.23;;
5801;SDS011;2927;49.366;8.530;2023-02-12T04:01:34;45.50;;;21.67;;
5801;SDS011;2927;49.366;8.530;2023-02-12T04:04:02;38.67;;;19.80;;
5801;SDS011;2927;49.366;8.530;2023-02-12T04:06:29;40.67;;;19.43;;
5801;SDS011;2927;49.366;8.530;2023-02-12T04:08:56;49.60;;;21.70;;
5801;SDS011;2927;49.366;8.530;2023-02-12T04:28:26;50.73;;;22.60;;
5801;SDS011;2927;49.366;8.530;2023-02-12T04:31:10;40.73;;;21.07;;
5801;SDS011;2927;49.366;8.530;2023-02-12T04:33:47;46.60;;;22.27;;
5801;SDS011;2927;49.366;8.530;2023-02-12T04:36:40;49.47;;;23.30;;
5801;SDS011;2927;49.366;8.530;2023-02-12T04:39:18;47.97;;;21.87;;
5801;SDS011;2927;49.366;8.530;2023-02-12T04:41:47;51.23;;;23.27;;
5801;SDS011;2927;49.366;8.530;2023-02-12T04:46:43;45.03;;;22.23;;
5801;SDS011;2927;49.366;8.530;2023-02-12T04:49:11;56.20;;;23.13;;
5801;SDS011;2927;49.366;8.530;2023-02-12T04:51:39;47.90;;;22.97;;
5801;SDS011;2927;49.366;8.530;2023-02-12T04:54:04;49.43;;;21.87;;
5801;SDS011;2927;49.366;8.530;2023-02-12T04:56:30;44.57;;;22.47;;
5801;SDS011;2927;49.366;8.530;2023-02-12T04:58:55;48.07;;;23.23;;
5801;SDS011;2927;49.366;8.530;2023-02-12T05:01:22;51.87;;;23.73;;
5801;SDS011;2927;49.366;8.530;2023-02-12T05:03:48;47.60;;;21.60;;
5801;SDS011;2927;49.366;8.530;2023-02-12T05:06:13;54.80;;;22.60;;
5801;SDS011;2927;49.366;8.530;2023-02-12T05:08:39;40.20;;;21.13;;
5801;SDS011;2927;49.366;8.530;2023-02-12T05:11:05;46.87;;;24.03;;
5801;SDS011;2927;49.366;8.530;2023-02-12T05:13:32;44.47;;;21.80;;
5801;SDS011;2927;49.366;8.530;2023-02-12T05:15:58;42.87;;;20.83;;
5801;SDS011;2927;49.366;8.530;2023-02-12T05:18:24;43.50;;;21.90;;
5801;SDS011;2927;49.366;8.530;2023-02-12T05:20:56;51.83;;;23.40;;
5801;SDS011;2927;49.366;8.530;2023-02-12T05:23:26;38.53;;;21.60;;
5801;SDS011;2927;49.366;8.530;2023-02-12T05:25:53;46.47;;;23.43;;
5801;SDS011;2927;49.366;8.530;2023-02-12T05:28:18;43.90;;;23.23;;
5801;SDS011;2927;49.366;8.530;2023-02-12T05:30:44;51.97;;;24.27;;
5801;SDS011;2927;49.366;8.530;2023-02-12T05:33:10;45.53;;;23.10;;
5801;SDS011;2927;49.366;8.530;2023-02-12T05:35:35;51.37;;;24.23;;
5801;SDS011;2927;49.366;8.530;2023-02-12T05:38:01;49.37;;;24.70;;
5801;SDS011;2927;49.366;8.530;2023-02-12T05:40:26;55.30;;;25.00;;
5801;SDS011;2927;49.366;8.530;2023-02-12T05:42:52;46.93;;;22.73;;
5801;SDS011;2927;49.366;8.530;2023-02-12T05:45:17;46.43;;;24.50;;
5801;SDS011;2927;49.366;8.530;2023-02-12T05:47:43;52.60;;;21.20;;
5801;SDS011;2927;49.366;8.530;2023-02-12T05:50:08;46.60;;;22.50;;
5801;SDS011;2927;49.366;8.530;2023-02-12T05:52:34;45.00;;;21.37;;
5801;SDS011;2927;49.366;8.530;2023-02-12T05:55:00;45.10;;;23.33;;
5801;SDS011;2927;49.366;8.530;2023-02-12T05:57:26;48.20;;;24.20;;
5801;SDS011;2927;49.366;8.530;2023-02-12T05:59:51;50.43;;;22.97;;
5801;SDS011;2927;49.366;8.530;2023-02-12T06:02:17;57.80;;;24.30;;
5801;SDS011;2927;49.366;8.530;2023-02-12T06:04:42;52.50;;;23.93;;
5801;SDS011;2927;49.366;8.530;2023-02-12T06:07:08;45.03;;;23.97;;
5801;SDS011;2927;49.366;8.530;2023-02-12T06:09:33;48.90;;;24.73;;
5801;SDS011;2927;49.366;8.530;2023-02-12T06:11:59;52.47;;;23.43;;
5801;SDS011;2927;49.366;8.530;2023-02-12T06:14:25;44.40;;;22.70;;
5801;SDS011;2927;49.366;8.530;2023-02-12T06:16:51;49.77;;;23.00;;
5801;SDS011;2927;49.366;8.530;2023-02-12T06:19:17;45.50;;;20.77;;
5801;SDS011;2927;49.366;8.530;2023-02-12T06:21:43;52.13;;;22.80;;
5801;SDS011;2927;49.366;8.530;2023-02-12T06:24:13;42.93;;;22.73;;
5801;SDS011;2927;49.366;8.530;2023-02-12T06:26:39;48.20;;;22.80;;
5801;SDS011;2927;49.366;8.530;2023-02-12T06:29:05;41.30;;;20.50;;
5801;SDS011;2927;49.366;8.530;2023-02-12T06:31:32;41.57;;;20.60;;
5801;SDS011;2927;49.366;8.530;2023-02-12T06:34:00;40.83;;;21.30;;
5801;SDS011;2927;49.366;8.530;2023-02-12T06:36:30;45.10;;;21.80;;
5801;SDS011;2927;49.366;8.530;2023-02-12T06:38:56;42.30;;;23.83;;
5801;SDS011;2927;49.366;8.530;2023-02-12T06:41:22;48.97;;;22.30;;
5801;SDS011;2927;49.366;8.530;2023-02-12T06:43:48;42.50;;;20.57;;
5801;SDS011;2927;49.366;8.530;2023-02-12T06:46:13;42.63;;;20.67;;
5801;SDS011;2927;49.366;8.530;2023-02-12T06:48:39;61.87;;;22.30;;
5801;SDS011;2927;49.366;8.530;2023-02-12T06:51:15;48.57;;;22.50;;
5801;SDS011;2927;49.366;8.530;2023-02-12T06:53:42;45.30;;;19.67;;
5801;SDS011;2927;49.366;8.530;2023-02-12T06:56:09;48.07;;;21.87;;
5801;SDS011;2927;49.366;8.530;2023-02-12T06:58:37;48.03;;;23.37;;
5801;SDS011;2927;49.366;8.530;2023-02-12T07:01:28;41.40;;;20.20;;
5801;SDS011;2927;49.366;8.530;2023-02-12T07:03:55;40.87;;;20.80;;
5801;SDS011;2927;49.366;8.530;2023-02-12T07:06:26;51.83;;;22.60;;
5801;SDS011;2927;49.366;8.530;2023-02-12T07:08:52;45.77;;;22.67;;
5801;SDS011;2927;49.366;8.530;2023-02-12T07:11:21;35.73;;;20.13;;
5801;SDS011;2927;49.366;8.530;2023-02-12T07:13:50;49.23;;;22.03;;
5801;SDS011;2927;49.366;8.530;2023-02-12T07:16:16;47.43;;;22.53;;
5801;SDS011;2927;49.366;8.530;2023-02-12T07:18:42;40.40;;;20.60;;
5801;SDS011;2927;49.366;8.530;2023-02-12T07:21:08;46.33;;;22.87;;
5801;SDS011;2927;49.366;8.530;2023-02-12T07:23:35;43.63;;;22.37;;
5801;SDS011;2927;49.366;8.530;2023-02-12T07:26:02;39.40;;;20.10;;
5801;SDS011;2927;49.366;8.530;2023-02-12T07:28:29;47.50;;;22.30;;
5801;SDS011;2927;49.366;8.530;2023-02-12T07:30:59;38.87;;;21.00;;
5801;SDS011;2927;49.366;8.530;2023-02-12T07:33:29;42.87;;;21.13;;
5801;SDS011;2927;49.366;8.530;2023-02-12T07:35:58;40.43;;;20.80;;
5801;SDS011;2927;49.366;8.530;2023-02-12T07:38:27;38.47;;;22.30;;
5801;SDS011;2927;49.366;8.530;2023-02-12T07:40:53;49.93;;;21.03;;
5801;SDS011;2927;49.366;8.530;2023-02-12T07:43:18;45.53;;;23.30;;
5801;SDS011;2927;49.366;8.530;2023-02-12T07:45:43;47.33;;;22.07;;
5801;SDS011;2927;49.366;8.530;2023-02-12T07:48:09;45.10;;;23.50;;
5801;SDS011;2927;49.366;8.530;2023-02-12T07:50:34;52.63;;;23.80;;
5801;SDS011;2927;49.366;8.530;2023-02-12T07:53:00;43.00;;;21.30;;
5801;SDS011;2927;49.366;8.530;2023-02-12T07:55:26;41.30;;;21.90;;
5801;SDS011;2927;49.366;8.530;2023-02-12T07:57:51;53.87;;;21.77;;
5801;SDS011;2927;49.366;8.530;2023-02-12T08:00:17;44.07;;;23.60;;
5801;SDS011;2927;49.366;8.530;2023-02-12T08:02:43;39.97;;;20.80;;
5801;SDS011;2927;49.366;8.530;2023-02-12T08:05:08;43.27;;;20.63;;
5801;SDS011;2927;49.366;8.530;2023-02-12T08:07:34;37.43;;;19.90;;
5801;SDS011;2927;49.366;8.530;2023-02-12T08:09:59;47.63;;;21.63;;
5801;SDS011;2927;49.366;8.530;2023-02-12T08:12:25;38.53;;;20.63;;
5801;SDS011;2927;49.366;8.530;2023-02-12T08:14:50;44.07;;;21.33;;
5801;SDS011;2927;49.366;8.530;2023-02-12T08:17:16;43.70;;;21.77;;
5801;SDS011;2927;49.366;8.530;2023-02-12T08:19:41;44.20;;;23.10;;
5801;SDS011;2927;49.366;8.530;2023-02-12T08:22:07;39.33;;;21.50;;
5801;SDS011;2927;49.366;8.530;2023-02-12T08:24:32;39.07;;;21.67;;
5801;SDS011;2927;49.366;8.530;2023-02-12T08:26:58;40.00;;;20.50;;
5801;SDS011;2927;49.366;8.530;2023-02-12T08:29:25;41.03;;;20.73;;
5801;SDS011;2927;49.366;8.530;2023-02-12T08:31:56;35.87;;;20.40;;
5801;SDS011;2927;49.366;8.530;2023-02-12T08:34:30;40.80;;;20.70;;
5801;SDS011;2927;49.366;8.530;2023-02-12T08:36:57;39.20;;;18.50;;
5801;SDS011;2927;49.366;8.530;2023-02-12T08:39:24;42.13;;;19.80;;
5801;SDS011;2927;49.366;8.530;2023-02-12T08:41:54;34.73;;;18.07;;
5801;SDS011;2927;49.366;8.530;2023-02-12T08:44:21;38.17;;;18.53;;
5801;SDS011;2927;49.366;8.530;2023-02-12T08:46:47;38.50;;;17.50;;
5801;SDS011;2927;49.366;8.530;2023-02-12T08:49:15;28.83;;;16.33;;
5801;SDS011;2927;49.366;8.530;2023-02-12T08:51:47;33.33;;;18.27;;
5801;SDS011;2927;49.366;8.530;2023-02-12T08:54:16;32.70;;;16.23;;
5801;SDS011;2927;49.366;8.530;2023-02-12T08:56:47;35.63;;;17.70;;
5801;SDS011;2927;49.366;8.530;2023-02-12T08:59:14;32.37;;;16.73;;
5801;SDS011;2927;49.366;8.530;2023-02-12T09:01:40;31.70;;;16.50;;
5801;SDS011;2927;49.366;8.530;2023-02-12T09:04:07;35.27;;;14.93;;
5801;SDS011;2927;49.366;8.530;2023-02-12T09:06:42;34.53;;;15.60;;
5801;SDS011;2927;49.366;8.530;2023-02-12T09:09:08;32.47;;;15.33;;
5801;SDS011;2927;49.366;8.530;2023-02-12T09:11:34;30.57;;;16.00;;
5801;SDS011;2927;49.366;8.530;2023-02-12T09:14:01;33.70;;;18.00;;
5801;SDS011;2927;49.366;8.530;2023-02-12T09:16:30;30.77;;;16.27;;
5801;SDS011;2927;49.366;8.530;2023-02-12T09:18:57;29.80;;;16.60;;
5801;SDS011;2927;49.366;8.530;2023-02-12T09:21:22;32.30;;;14.63;;
5801;SDS011;2927;49.366;8.530;2023-02-12T09:23:48;39.03;;;16.53;;
5801;SDS011;2927;49.366;8.530;2023-02-12T09:26:15;32.90;;;16.50;;
5801;SDS011;2927;49.366;8.530;2023-02-12T09:28:44;29.53;;;17.07;;
5801;SDS011;2927;49.366;8.530;2023-02-12T09:31:12;32.10;;;17.30;;
5801;SDS011;2927;49.366;8.530;2023-02-12T09:33:39;35.37;;;17.83;;
5801;SDS011;2927;49.366;8.530;2023-02-12T09:36:06;30.47;;;17.37;;
5801;SDS011;2927;49.366;8.530;2023-02-12T09:38:35;35.77;;;18.23;;
5801;SDS011;2927;49.366;8.530;2023-02-12T09:46:20;35.60;;;17.73;;
5801;SDS011;2927;49.366;8.530;2023-02-12T09:51:39;38.80;;;17.30;;
5801;SDS011;2927;49.366;8.530;2023-02-12T09:54:15;37.93;;;17.00;;
5801;SDS011;2927;49.366;8.530;2023-02-12T09:56:47;28.13;;;15.23;;
5801;SDS011;2927;49.366;8.530;2023-02-12T09:59:27;30.70;;;17.23;;
5801;SDS011;2927;49.366;8.530;2023-02-12T10:02:01;31.30;;;15.73;;
5801;SDS011;2927;49.366;8.530;2023-02-12T10:04:27;31.23;;;15.17;;
5801;SDS011;2927;49.366;8.530;2023-02-12T10:07:00;31.73;;;15.03;;
5801;SDS011;2927;49.366;8.530;2023-02-12T10:12:27;29.70;;;15.70;;
5801;SDS011;2927;49.366;8.530;2023-02-12T10:17:55;31.40;;;17.10;;
5801;SDS011;2927;49.366;8.530;2023-02-12T10:23:48;30.30;;;16.17;;
5801;SDS011;2927;49.366;8.530;2023-02-12T10:28:46;32.97;;;17.80;;
5801;SDS011;2927;49.366;8.530;2023-02-12T10:31:17;34.07;;;16.97;;
5801;SDS011;2927;49.366;8.530;2023-02-12T10:33:56;35.17;;;15.50;;
5801;SDS011;2927;49.366;8.530;2023-02-12T10:36:40;35.23;;;17.97;;
5801;SDS011;2927;49.366;8.530;2023-02-12T10:41:35;30.07;;;17.23;;
5801;SDS011;2927;49.366;8.530;2023-02-12T10:44:23;33.87;;;16.80;;
5801;SDS011;2927;49.366;8.530;2023-02-12T10:46:49;37.07;;;18.50;;
5801;SDS011;2927;49.366;8.530;2023-02-12T10:49:16;34.73;;;18.30;;
5801;SDS011;2927;49.366;8.530;2023-02-12T10:54:30;31.90;;;16.13;;
5801;SDS011;2927;49.366;8.530;2023-02-12T10:56:58;36.20;;;18.00;;
5801;SDS011;2927;49.366;8.530;2023-02-12T10:59:28;32.67;;;17.40;;
5801;SDS011;2927;49.366;8.530;2023-02-12T11:01:54;33.77;;;17.90;;
5801;SDS011;2927;49.366;8.530;2023-02-12T11:04:22;36.87;;;17.90;;
5801;SDS011;2927;49.366;8.530;2023-02-12T11:07:04;33.60;;;17.63;;
5801;SDS011;2927;49.366;8.530;2023-02-12T11:09:33;34.13;;;16.40;;
5801;SDS011;2927;49.366;8.530;2023-02-12T11:12:04;30.50;;;17.60;;
5801;SDS011;2927;49.366;8.530;2023-02-12T11:14:49;37.77;;;18.23;;
5801;SDS011;2927;49.366;8.530;2023-02-12T11:17:29;35.67;;;17.00;;
5801;SDS011;2927;49.366;8.530;2023-02-12T11:20:23;41.03;;;18.07;;
5801;SDS011;2927;49.366;8.530;2023-02-12T11:22:52;32.27;;;15.83;;
5801;SDS011;2927;49.366;8.530;2023-02-12T11:25:20;32.27;;;16.30;;
5801;SDS011;2927;49.366;8.530;2023-02-12T11:30:28;35.40;;;16.00;;
5801;SDS011;2927;49.366;8.530;2023-02-12T11:32:54;31.80;;;16.97;;
5801;SDS011;2927;49.366;8.530;2023-02-12T11:35:38;30.30;;;15.80;;
5801;SDS011;2927;49.366;8.530;2023-02-12T11:38:19;37.13;;;16.37;;
5801;SDS011;2927;49.366;8.530;2023-02-12T11:40:49;27.97;;;13.70;;
5801;SDS011;2927;49.366;8.530;2023-02-12T11:43:17;24.70;;;11.73;;
5801;SDS011;2927;49.366;8.530;2023-02-12T11:45:47;23.07;;;12.83;;
5801;SDS011;2927;49.366;8.530;2023-02-12T11:48:18;23.47;;;12.30;;
5801;SDS011;2927;49.366;8.530;2023-02-12T11:50:47;15.67;;;9.27;;
5801;SDS011;2927;49.366;8.530;2023-02-12T11:53:22;17.37;;;8.63;;
5801;SDS011;2927;49.366;8.530;2023-02-12T11:55:59;9.53;;;6.47;;
5801;SDS011;2927;49.366;8.530;2023-02-12T11:58:26;8.70;;;4.93;;
5801;SDS011;2927;49.366;8.530;2023-02-12T12:01:28;9.40;;;6.10;;
5801;SDS011;2927;49.366;8.530;2023-02-12T12:04:05;11.60;;;5.90;;
5801;SDS011;2927;49.366;8.530;2023-02-12T12:09:19;9.17;;;5.20;;
5801;SDS011;2927;49.366;8.530;2023-02-12T12:17:36;8.20;;;5.73;;
5801;SDS011;2927;49.366;8.530;2023-02-12T12:20:26;6.07;;;4.13;;
5801;SDS011;2927;49.366;8.530;2023-02-12T12:22:56;8.27;;;4.90;;
5801;SDS011;2927;49.366;8.530;2023-02-12T12:33:51;6.80;;;4.13;;
5801;SDS011;2927;49.366;8.530;2023-02-12T12:36:35;7.90;;;5.17;;
5801;SDS011;2927;49.366;8.530;2023-02-12T12:39:16;2.63;;;2.43;;
5801;SDS011;2927;49.366;8.530;2023-02-12T12:47:34;2.60;;;1.97;;
5801;SDS011;2927;49.366;8.530;2023-02-12T12:50:26;2.83;;;2.07;;
5801;SDS011;2927;49.366;8.530;2023-02-12T12:55:56;5.20;;;3.03;;
5801;SDS011;2927;49.366;8.530;2023-02-12T13:04:27;3.27;;;2.50;;
5801;SDS011;2927;49.366;8.530;2023-02-12T13:13:06;2.27;;;2.07;;
5801;SDS011;2927;49.366;8.530;2023-02-12T13:21:43;1.83;;;1.73;;
5801;SDS011;2927;49.366;8.530;2023-02-12T13:27:17;2.70;;;2.23;;
5801;SDS011;2927;49.366;8.530;2023-02-12T13:29:52;1.77;;;1.50;;
5801;SDS011;2927;49.366;8.530;2023-02-12T13:32:28;3.40;;;1.83;;
5801;SDS011;2927;49.366;8.530;2023-02-12T13:34:58;3.00;;;2.30;;
5801;SDS011;2927;49.366;8.530;2023-02-12T13:39:56;2.33;;;1.80;;
5801;SDS011;2927;49.366;8.530;2023-02-12T13:42:39;3.20;;;2.07;;
5801;SDS011;2927;49.366;8.530;2023-02-12T13:50:39;2.00;;;1.90;;
5801;SDS011;2927;49.366;8.530;2023-02-12T14:03:32;3.30;;;2.13;;
5801;SDS011;2927;49.366;8.530;2023-02-12T14:06:19;27.60;;;13.03;;
5801;SDS011;2927;49.366;8.530;2023-02-12T14:08:47;32.67;;;13.10;;
5801;SDS011;2927;49.366;8.530;2023-02-12T14:11:17;35.77;;;16.07;;
5801;SDS011;2927;49.366;8.530;2023-02-12T14:13:53;3.90;;;3.20;;
5801;SDS011;2927;49.366;8.530;2023-02-12T14:21:59;30.33;;;10.70;;
5801;SDS011;2927;49.366;8.530;2023-02-12T14:27:00;2.63;;;2.43;;
5801;SDS011;2927;49.366;8.530;2023-02-12T14:37:58;4.50;;;2.80;;
5801;SDS011;2927;49.366;8.530;2023-02-12T14:40:29;4.73;;;2.70;;
5801;SDS011;2927;49.366;8.530;2023-02-12T14:45:51;3.90;;;2.60;;
5801;SDS011;2927;49.366;8.530;2023-02-12T14:51:16;4.83;;;3.20;;
5801;SDS011;2927;49.366;8.530;2023-02-12T14:53:46;3.17;;;2.43;;
5801;SDS011;2927;49.366;8.530;2023-02-12T14:56:17;4.30;;;3.03;;
5801;SDS011;2927;49.366;8.530;2023-02-12T14:58:47;3.50;;;3.20;;
5801;SDS011;2927;49.366;8.530;2023-02-12T15:01:14;3.67;;;3.00;;
5801;SDS011;2927;49.366;8.530;2023-02-12T15:03:42;5.97;;;2.80;;
5801;SDS011;2927;49.366;8.530;2023-02-12T15:06:23;5.50;;;3.33;;
5801;SDS011;2927;49.366;8.530;2023-02-12T15:09:44;3.93;;;2.70;;
5801;SDS011;2927;49.366;8.530;2023-02-12T15:11:57;3.50;;;2.80;;
5801;SDS011;2927;49.366;8.530;2023-02-12T15:14:44;3.73;;;2.80;;
5801;SDS011;2927;49.366;8.530;2023-02-12T15:19:54;5.40;;;3.50;;
5801;SDS011;2927;49.366;8.530;2023-02-12T15:22:40;4.33;;;2.90;;
5801;SDS011;2927;49.366;8.530;2023-02-12T15:25:13;4.13;;;2.87;;
5801;SDS011;2927;49.366;8.530;2023-02-12T15:30:29;4.70;;;2.80;;
5801;SDS011;2927;49.366;8.530;2023-02-12T15:32:59;3.23;;;2.40;;
5801;SDS011;2927;49.366;8.530;2023-02-12T15:35:28;3.97;;;2.97;;
5801;SDS011;2927;49.366;8.530;2023-02-12T15:37:56;3.50;;;3.10;;
5801;SDS011;2927;49.366;8.530;2023-02-12T15:40:24;3.13;;;2.53;;
5801;SDS011;2927;49.366;8.530;2023-02-12T15:42:58;8.43;;;3.73;;
5801;SDS011;2927;49.366;8.530;2023-02-12T15:45:28;7.00;;;4.97;;
5801;SDS011;2927;49.366;8.530;2023-02-12T15:50:54;3.37;;;2.40;;
5801;SDS011;2927;49.366;8.530;2023-02-12T15:53:27;5.43;;;3.00;;
5801;SDS011;2927;49.366;8.530;2023-02-12T15:55:54;4.50;;;2.37;;
5801;SDS011;2927;49.366;8.530;2023-02-12T15:58:26;5.07;;;3.30;;
5801;SDS011;2927;49.366;8.530;2023-02-12T16:01:00;5.63;;;3.30;;
5801;SDS011;2927;49.366;8.530;2023-02-12T16:03:32;4.93;;;2.10;;
5801;SDS011;2927;49.366;8.530;2023-02-12T16:06:09;2.73;;;2.50;;
5801;SDS011;2927;49.366;8.530;2023-02-12T16:08:41;4.70;;;2.93;;
5801;SDS011;2927;49.366;8.530;2023-02-12T16:11:09;4.43;;;2.93;;
5801;SDS011;2927;49.366;8.530;2023-02-12T16:13:41;4.57;;;2.93;;
5801;SDS011;2927;49.366;8.530;2023-02-12T16:18:41;5.43;;;3.57;;
5801;SDS011;2927;49.366;8.530;2023-02-12T16:21:12;10.43;;;4.17;;
5801;SDS011;2927;49.366;8.530;2023-02-12T16:23:47;9.43;;;4.20;;
5801;SDS011;2927;49.366;8.530;2023-02-12T16:26:18;5.00;;;3.60;;
5801;SDS011;2927;49.366;8.530;2023-02-12T16:28:49;6.03;;;4.10;;
5801;SDS011;2927;49.366;8.530;2023-02-12T16:31:17;7.97;;;3.90;;
5801;SDS011;2927;49.366;8.530;2023-02-12T16:33:46;4.70;;;3.97;;
5801;SDS011;2927;49.366;8.530;2023-02-12T16:38:50;9.30;;;5.13;;
5801;SDS011;2927;49.366;8.530;2023-02-12T16:46:25;13.00;;;8.37;;
5801;SDS011;2927;49.366;8.530;2023-02-12T16:49:13;12.37;;;6.17;;
5801;SDS011;2927;49.366;8.530;2023-02-12T16:51:41;9.80;;;6.03;;
5801;SDS011;2927;49.366;8.530;2023-02-12T16:54:25;8.27;;;5.07;;
5801;SDS011;2927;49.366;8.530;2023-02-12T16:56:50;11.93;;;6.80;;
5801;SDS011;2927;49.366;8.530;2023-02-12T16:59:16;11.67;;;6.40;;
5801;SDS011;2927;49.366;8.530;2023-02-12T17:01:41;13.40;;;8.23;;
5801;SDS011;2927;49.366;8.530;2023-02-12T17:04:25;17.83;;;9.17;;
5801;SDS011;2927;49.366;8.530;2023-02-12T17:06:51;22.17;;;11.50;;
5801;SDS011;2927;49.366;8.530;2023-02-12T17:09:16;17.07;;;9.17;;
5801;SDS011;2927;49.366;8.530;2023-02-12T17:11:42;19.57;;;11.30;;
5801;SDS011;2927;49.366;8.530;2023-02-12T17:14:09;32.47;;;15.33;;
5801;SDS011;2927;49.366;8.530;2023-02-12T17:16:39;28.33;;;14.60;;
5801;SDS011;2927;49.366;8.530;2023-02-12T17:19:04;30.07;;;15.00;;
5801;SDS011;2927;49.366;8.530;2023-02-12T17:21:31;35.17;;;17.73;;
5801;SDS011;2927;49.366;8.530;2023-02-12T17:24:02;31.50;;;15.47;;
5801;SDS011;2927;49.366;8.530;2023-02-12T17:26:29;29.27;;;15.00;;
5801;SDS011;2927;49.366;8.530;2023-02-12T17:28:54;29.13;;;15.20;;
5801;SDS011;2927;49.366;8.530;2023-02-12T17:31:28;29.83;;;14.10;;
5801;SDS011;2927;49.366;8.530;2023-02-12T17:33:58;28.33;;;12.90;;
5801;SDS011;2927;49.366;8.530;2023-02-12T17:36:24;31.20;;;12.80;;
5801;SDS011;2927;49.366;8.530;2023-02-12T17:38:50;30.77;;;15.53;;
5801;SDS011;2927;49.366;8.530;2023-02-12T17:41:15;44.80;;;19.50;;
5801;SDS011;2927;49.366;8.530;2023-02-12T17:43:42;36.87;;;15.40;;
5801;SDS011;2927;49.366;8.530;2023-02-12T17:46:10;30.60;;;14.33;;
5801;SDS011;2927;49.366;8.530;2023-02-12T17:48:37;46.90;;;18.83;;
5801;SDS011;2927;49.366;8.530;2023-02-12T17:51:04;45.73;;;21.10;;
5801;SDS011;2927;49.366;8.530;2023-02-12T17:53:30;43.20;;;19.10;;
5801;SDS011;2927;49.366;8.530;2023-02-12T17:55:55;36.57;;;17.33;;
5801;SDS011;2927;49.366;8.530;2023-02-12T17:58:21;41.33;;;18.03;;
5801;SDS011;2927;49.366;8.530;2023-02-12T18:00:46;38.27;;;18.50;;
5801;SDS011;2927;49.366;8.530;2023-02-12T18:03:12;47.57;;;18.83;;
5801;SDS011;2927;49.366;8.530;2023-02-12T18:05:41;41.97;;;19.23;;